sensor_id;sensor_type;location;lat;lon;timestamp;temperature;humidity
3868;DHT22;1949;48.152;11.528;2023-11-22T00:00:40;13.80;51.10
3868;DHT22;1949;48.152;11.528;2023-11-22T00:03:06;13.70;50.90
3868;DHT22;1949;48.152;11.528;2023-11-22T00:05:32;13.70;50.90
3868;DHT22;1949;48.152;11.528;2023-11-22T00:07:58;13.70;50.90
3868;DHT22;1949;48.152;11.528;2023-11-22T00:10:23;13.70;50.90
3868;DHT22;1949;48.152;11.528;2023-11-22T00:12:49;13.70;50.90
3868;DHT22;1949;48.152;11.528;2023-11-22T00:15:15;13.70;50.90
3868;DHT22;1949;48.152;11.528;2023-11-22T00:17:46;13.70;50.80
3868;DHT22;1949;48.152;11.528;2023-11-22T00:20:13;13.70;51.00
3868;DHT22;1949;48.152;11.528;2023-11-22T00:22:38;13.70;51.00
3868;DHT22;1949;48.152;11.528;2023-11-22T00:25:04;13.70;51.00
3868;DHT22;1949;48.152;11.528;2023-11-22T00:27:31;13.70;51.00
3868;DHT22;1949;48.152;11.528;2023-11-22T00:29:59;13.70;51.00
3868;DHT22;1949;48.152;11.528;2023-11-22T00:32:25;13.60;50.90
3868;DHT22;1949;48.152;11.528;2023-11-22T00:34:54;13.60;50.90
3868;DHT22;1949;48.152;11.528;2023-11-22T00:37:19;13.60;51.00
3868;DHT22;1949;48.152;11.528;2023-11-22T00:39:45;13.60;50.90
3868;DHT22;1949;48.152;11.528;2023-11-22T00:42:12;13.60;50.90
3868;DHT22;1949;48.152;11.528;2023-11-22T00:44:37;13.60;50.90
3868;DHT22;1949;48.152;11.528;2023-11-22T00:47:03;13.60;51.10
3868;DHT22;1949;48.152;11.528;2023-11-22T00:49:29;13.60;51.00
3868;DHT22;1949;48.152;11.528;2023-11-22T00:51:55;13.60;51.10
3868;DHT22;1949;48.152;11.528;2023-11-22T00:54:20;13.60;50.90
3868;DHT22;1949;48.152;11.528;2023-11-22T00:56:46;13.60;51.10
3868;DHT22;1949;48.152;11.528;2023-11-22T00:59:12;13.60;51.10
3868;DHT22;1949;48.152;11.528;2023-11-22T01:01:40;13.60;51.20
3868;DHT22;1949;48.152;11.528;2023-11-22T01:04:05;13.60;51.10
3868;DHT22;1949;48.152;11.528;2023-11-22T01:06:33;13.70;51.10
3868;DHT22;1949;48.152;11.528;2023-11-22T01:08:59;13.70;51.00
3868;DHT22;1949;48.152;11.528;2023-11-22T01:11:24;13.70;51.00
3868;DHT22;1949;48.152;11.528;2023-11-22T01:13:50;13.70;50.90
3868;DHT22;1949;48.152;11.528;2023-11-22T01:16:16;13.70;51.00
3868;DHT22;1949;48.152;11.528;2023-11-22T01:18:41;13.70;51.00
3868;DHT22;1949;48.152;11.528;2023-11-22T01:21:07;13.60;50.90
3868;DHT22;1949;48.152;11.528;2023-11-22T01:23:33;13.60;50.90
3868;DHT22;1949;48.152;11.528;2023-11-22T01:25:59;13.60;50.90
3868;DHT22;1949;48.152;11.528;2023-11-22T01:28:26;13.60;51.00
3868;DHT22;1949;48.152;11.528;2023-11-22T01:30:53;13.60;51.00
3868;DHT22;1949;48.152;11.528;2023-11-22T01:33:22;13.60;51.00
3868;DHT22;1949;48.152;11.528;2023-11-22T01:35:48;13.70;51.10
3868;DHT22;1949;48.152;11.528;2023-11-22T01:38:15;13.70;50.90
3868;DHT22;1949;48.152;11.528;2023-11-22T01:40:47;13.70;51.60
3868;DHT22;1949;48.152;11.528;2023-11-22T01:43:20;13.70;50.90
3868;DHT22;1949;48.152;11.528;2023-11-22T01:45:49;13.70;50.90
3868;DHT22;1949;48.152;11.528;2023-11-22T01:48:15;13.70;50.90
3868;DHT22;1949;48.152;11.528;2023-11-22T01:50:42;13.60;50.90
3868;DHT22;1949;48.152;11.528;2023-11-22T01:53:11;13.60;50.90
3868;DHT22;1949;48.152;11.528;2023-11-22T01:55:39;13.60;50.90
3868;DHT22;1949;48.152;11.528;2023-11-22T01:58:06;13.60;50.90
3868;DHT22;1949;48.152;11.528;2023-11-22T02:00:35;13.60;50.90
3868;DHT22;1949;48.152;11.528;2023-11-22T02:03:02;13.60;50.90
3868;DHT22;1949;48.152;11.528;2023-11-22T02:05:28;13.60;50.90
3868;DHT22;1949;48.152;11.528;2023-11-22T02:07:54;13.60;50.90
3868;DHT22;1949;48.152;11.528;2023-11-22T02:10:20;13.60;50.80
3868;DHT22;1949;48.152;11.528;2023-11-22T02:12:46;13.50;50.50
3868;DHT22;1949;48.152;11.528;2023-11-22T02:15:12;13.50;50.50
3868;DHT22;1949;48.152;11.528;2023-11-22T02:17:37;13.40;50.40
3868;DHT22;1949;48.152;11.528;2023-11-22T02:20:04;13.30;50.30
3868;DHT22;1949;48.152;11.528;2023-11-22T02:22:34;13.20;50.30
3868;DHT22;1949;48.152;11.528;2023-11-22T02:25:00;13.20;50.20
3868;DHT22;1949;48.152;11.528;2023-11-22T02:27:25;13.10;50.10
3868;DHT22;1949;48.152;11.528;2023-11-22T02:29:51;13.10;50.30
3868;DHT22;1949;48.152;11.528;2023-11-22T02:32:17;13.00;50.10
3868;DHT22;1949;48.152;11.528;2023-11-22T02:34:44;13.00;50.20
3868;DHT22;1949;48.152;11.528;2023-11-22T02:37:11;13.00;50.20
3868;DHT22;1949;48.152;11.528;2023-11-22T02:39:53;12.90;50.00
3868;DHT22;1949;48.152;11.528;2023-11-22T02:42:20;12.90;49.80
3868;DHT22;1949;48.152;11.528;2023-11-22T02:44:47;12.80;49.80
3868;DHT22;1949;48.152;11.528;2023-11-22T02:47:14;12.80;49.90
3868;DHT22;1949;48.152;11.528;2023-11-22T02:49:40;12.80;49.70
3868;DHT22;1949;48.152;11.528;2023-11-22T02:52:06;12.70;49.70
3868;DHT22;1949;48.152;11.528;2023-11-22T02:54:31;12.70;49.60
3868;DHT22;1949;48.152;11.528;2023-11-22T02:56:57;12.70;49.40
3868;DHT22;1949;48.152;11.528;2023-11-22T02:59:23;12.60;50.00
3868;DHT22;1949;48.152;11.528;2023-11-22T03:01:50;12.60;49.50
3868;DHT22;1949;48.152;11.528;2023-11-22T03:04:16;12.60;49.40
3868;DHT22;1949;48.152;11.528;2023-11-22T03:06:42;12.60;49.30
3868;DHT22;1949;48.152;11.528;2023-11-22T03:09:08;12.60;49.30
3868;DHT22;1949;48.152;11.528;2023-11-22T03:11:33;12.60;49.30
3868;DHT22;1949;48.152;11.528;2023-11-22T03:13:59;12.50;49.20
3868;DHT22;1949;48.152;11.528;2023-11-22T03:16:26;12.50;49.10
3868;DHT22;1949;48.152;11.528;2023-11-22T03:18:52;12.40;49.00
3868;DHT22;1949;48.152;11.528;2023-11-22T03:21:19;12.40;49.00
3868;DHT22;1949;48.152;11.528;2023-11-22T03:23:45;12.40;49.10
3868;DHT22;1949;48.152;11.528;2023-11-22T03:26:12;12.40;49.20
3868;DHT22;1949;48.152;11.528;2023-11-22T03:28:38;12.30;49.10
3868;DHT22;1949;48.152;11.528;2023-11-22T03:31:03;12.40;49.00
3868;DHT22;1949;48.152;11.528;2023-11-22T03:33:30;12.40;49.00
3868;DHT22;1949;48.152;11.528;2023-11-22T03:35:56;12.40;48.90
3868;DHT22;1949;48.152;11.528;2023-11-22T03:38:24;12.40;48.90
3868;DHT22;1949;48.152;11.528;2023-11-22T03:40:50;12.30;48.80
3868;DHT22;1949;48.152;11.528;2023-11-22T03:43:15;12.30;48.80
3868;DHT22;1949;48.152;11.528;2023-11-22T03:45:41;12.30;48.90
3868;DHT22;1949;48.152;11.528;2023-11-22T03:48:07;12.30;48.80
3868;DHT22;1949;48.152;11.528;2023-11-22T03:50:35;12.40;48.80
3868;DHT22;1949;48.152;11.528;2023-11-22T03:53:01;12.40;48.80
3868;DHT22;1949;48.152;11.528;2023-11-22T03:55:27;12.40;48.70
3868;DHT22;1949;48.152;11.528;2023-11-22T03:57:53;12.40;49.30
3868;DHT22;1949;48.152;11.528;2023-11-22T04:00:18;12.40;48.60
3868;DHT22;1949;48.152;11.528;2023-11-22T04:02:45;12.40;48.60
3868;DHT22;1949;48.152;11.528;2023-11-22T04:05:10;12.40;48.60
3868;DHT22;1949;48.152;11.528;2023-11-22T04:07:37;12.40;48.60
3868;DHT22;1949;48.152;11.528;2023-11-22T04:10:05;12.40;48.40
3868;DHT22;1949;48.152;11.528;2023-11-22T04:12:31;12.40;48.40
3868;DHT22;1949;48.152;11.528;2023-11-22T04:14:57;12.40;48.30
3868;DHT22;1949;48.152;11.528;2023-11-22T04:17:23;12.40;48.40
3868;DHT22;1949;48.152;11.528;2023-11-22T04:19:49;12.40;48.40
3868;DHT22;1949;48.152;11.528;2023-11-22T04:22:16;12.40;48.50
3868;DHT22;1949;48.152;11.528;2023-11-22T04:24:41;12.40;48.40
3868;DHT22;1949;48.152;11.528;2023-11-22T04:27:08;12.40;48.40
3868;DHT22;1949;48.152;11.528;2023-11-22T04:29:34;12.40;48.40
3868;DHT22;1949;48.152;11.528;2023-11-22T04:31:59;12.40;48.30
3868;DHT22;1949;48.152;11.528;2023-11-22T04:34:25;12.50;48.30
3868;DHT22;1949;48.152;11.528;2023-11-22T04:36:51;12.50;48.30
3868;DHT22;1949;48.152;11.528;2023-11-22T04:39:17;12.50;48.40
3868;DHT22;1949;48.152;11.528;2023-11-22T04:41:43;12.50;48.20
3868;DHT22;1949;48.152;11.528;2023-11-22T04:44:08;12.50;48.20
3868;DHT22;1949;48.152;11.528;2023-11-22T04:46:34;12.50;48.20
3868;DHT22;1949;48.152;11.528;2023-11-22T04:49:00;12.50;48.10
3868;DHT22;1949;48.152;11.528;2023-11-22T04:51:26;12.50;48.00
3868;DHT22;1949;48.152;11.528;2023-11-22T04:53:54;12.50;48.20
3868;DHT22;1949;48.152;11.528;2023-11-22T04:56:20;12.50;48.10
3868;DHT22;1949;48.152;11.528;2023-11-22T04:58:45;12.50;48.10
3868;DHT22;1949;48.152;11.528;2023-11-22T05:01:11;12.40;47.90
3868;DHT22;1949;48.152;11.528;2023-11-22T05:03:37;12.40;47.90
3868;DHT22;1949;48.152;11.528;2023-11-22T05:06:04;12.40;47.90
3868;DHT22;1949;48.152;11.528;2023-11-22T05:08:30;12.40;47.80
3868;DHT22;1949;48.152;11.528;2023-11-22T05:10:56;12.40;47.70
3868;DHT22;1949;48.152;11.528;2023-11-22T05:13:21;12.40;47.80
3868;DHT22;1949;48.152;11.528;2023-11-22T05:15:47;12.40;47.80
3868;DHT22;1949;48.152;11.528;2023-11-22T05:18:13;12.40;47.80
3868;DHT22;1949;48.152;11.528;2023-11-22T05:20:39;12.40;47.70
3868;DHT22;1949;48.152;11.528;2023-11-22T05:23:05;12.30;47.60
3868;DHT22;1949;48.152;11.528;2023-11-22T05:25:31;12.30;47.70
3868;DHT22;1949;48.152;11.528;2023-11-22T05:27:57;12.30;47.70
3868;DHT22;1949;48.152;11.528;2023-11-22T05:30:22;12.30;47.70
3868;DHT22;1949;48.152;11.528;2023-11-22T05:32:49;12.30;47.50
3868;DHT22;1949;48.152;11.528;2023-11-22T05:35:15;12.30;47.50
3868;DHT22;1949;48.152;11.528;2023-11-22T05:37:41;12.30;47.60
3868;DHT22;1949;48.152;11.528;2023-11-22T05:40:08;12.20;47.60
3868;DHT22;1949;48.152;11.528;2023-11-22T05:42:35;12.30;47.60
3868;DHT22;1949;48.152;11.528;2023-11-22T05:45:01;12.30;47.50
3868;DHT22;1949;48.152;11.528;2023-11-22T05:47:27;12.30;47.50
3868;DHT22;1949;48.152;11.528;2023-11-22T05:49:53;12.20;47.40
3868;DHT22;1949;48.152;11.528;2023-11-22T05:52:19;12.30;47.60
3868;DHT22;1949;48.152;11.528;2023-11-22T05:54:46;12.20;47.50
3868;DHT22;1949;48.152;11.528;2023-11-22T05:57:14;12.30;47.60
3868;DHT22;1949;48.152;11.528;2023-11-22T05:59:40;12.30;47.50
3868;DHT22;1949;48.152;11.528;2023-11-22T06:02:06;12.30;47.40
3868;DHT22;1949;48.152;11.528;2023-11-22T06:04:31;12.30;47.40
3868;DHT22;1949;48.152;11.528;2023-11-22T06:06:57;12.30;47.30
3868;DHT22;1949;48.152;11.528;2023-11-22T06:09:23;12.20;47.20
3868;DHT22;1949;48.152;11.528;2023-11-22T06:11:49;12.20;47.20
3868;DHT22;1949;48.152;11.528;2023-11-22T06:14:14;12.20;47.20
3868;DHT22;1949;48.152;11.528;2023-11-22T06:16:40;12.20;47.20
3868;DHT22;1949;48.152;11.528;2023-11-22T06:19:06;12.20;47.30
3868;DHT22;1949;48.152;11.528;2023-11-22T06:21:32;12.20;47.30
3868;DHT22;1949;48.152;11.528;2023-11-22T06:23:59;12.20;47.20
3868;DHT22;1949;48.152;11.528;2023-11-22T06:26:25;12.20;47.20
3868;DHT22;1949;48.152;11.528;2023-11-22T06:28:51;12.20;47.20
3868;DHT22;1949;48.152;11.528;2023-11-22T06:31:16;12.20;47.20
3868;DHT22;1949;48.152;11.528;2023-11-22T06:33:42;12.30;47.30
3868;DHT22;1949;48.152;11.528;2023-11-22T06:36:08;12.20;47.00
3868;DHT22;1949;48.152;11.528;2023-11-22T06:38:36;12.30;47.00
3868;DHT22;1949;48.152;11.528;2023-11-22T06:41:02;12.20;47.00
3868;DHT22;1949;48.152;11.528;2023-11-22T06:43:28;12.20;47.00
3868;DHT22;1949;48.152;11.528;2023-11-22T06:45:53;12.10;47.00
3868;DHT22;1949;48.152;11.528;2023-11-22T06:48:19;12.10;47.00
3868;DHT22;1949;48.152;11.528;2023-11-22T06:50:45;12.10;47.00
3868;DHT22;1949;48.152;11.528;2023-11-22T06:53:10;12.10;47.00
3868;DHT22;1949;48.152;11.528;2023-11-22T06:55:37;12.10;47.00
3868;DHT22;1949;48.152;11.528;2023-11-22T06:58:04;12.20;47.00
3868;DHT22;1949;48.152;11.528;2023-11-22T07:00:31;12.10;47.00
3868;DHT22;1949;48.152;11.528;2023-11-22T07:02:58;12.20;47.00
3868;DHT22;1949;48.152;11.528;2023-11-22T07:05:24;12.10;46.90
3868;DHT22;1949;48.152;11.528;2023-11-22T07:07:49;12.10;46.80
3868;DHT22;1949;48.152;11.528;2023-11-22T07:10:15;12.10;47.00
3868;DHT22;1949;48.152;11.528;2023-11-22T07:12:41;12.10;46.90
3868;DHT22;1949;48.152;11.528;2023-11-22T07:15:09;12.10;46.80
3868;DHT22;1949;48.152;11.528;2023-11-22T07:17:35;12.10;46.80
3868;DHT22;1949;48.152;11.528;2023-11-22T07:20:02;12.10;46.70
3868;DHT22;1949;48.152;11.528;2023-11-22T07:22:28;12.10;46.70
3868;DHT22;1949;48.152;11.528;2023-11-22T07:24:56;12.10;46.70
3868;DHT22;1949;48.152;11.528;2023-11-22T07:27:25;12.10;46.80
3868;DHT22;1949;48.152;11.528;2023-11-22T07:29:51;12.10;46.80
3868;DHT22;1949;48.152;11.528;2023-11-22T07:32:17;12.10;46.70
3868;DHT22;1949;48.152;11.528;2023-11-22T07:34:45;12.10;46.70
3868;DHT22;1949;48.152;11.528;2023-11-22T07:37:11;12.10;46.60
3868;DHT22;1949;48.152;11.528;2023-11-22T07:39:38;12.10;46.50
3868;DHT22;1949;48.152;11.528;2023-11-22T07:42:08;12.00;46.40
3868;DHT22;1949;48.152;11.528;2023-11-22T07:44:37;12.00;46.50
3868;DHT22;1949;48.152;11.528;2023-11-22T07:47:03;12.00;46.60
3868;DHT22;1949;48.152;11.528;2023-11-22T07:49:33;12.00;46.70
3868;DHT22;1949;48.152;11.528;2023-11-22T07:52:02;12.00;46.60
3868;DHT22;1949;48.152;11.528;2023-11-22T07:54:28;12.00;46.60
3868;DHT22;1949;48.152;11.528;2023-11-22T07:56:55;12.00;46.60
3868;DHT22;1949;48.152;11.528;2023-11-22T07:59:21;12.00;46.60
3868;DHT22;1949;48.152;11.528;2023-11-22T08:01:47;12.00;46.60
3868;DHT22;1949;48.152;11.528;2023-11-22T08:04:16;12.00;46.50
3868;DHT22;1949;48.152;11.528;2023-11-22T08:06:42;12.00;46.50
3868;DHT22;1949;48.152;11.528;2023-11-22T08:09:08;12.00;46.40
3868;DHT22;1949;48.152;11.528;2023-11-22T08:11:34;12.00;46.50
3868;DHT22;1949;48.152;11.528;2023-11-22T08:14:01;11.90;47.00
3868;DHT22;1949;48.152;11.528;2023-11-22T08:16:27;11.90;46.50
3868;DHT22;1949;48.152;11.528;2023-11-22T08:18:53;11.90;46.50
3868;DHT22;1949;48.152;11.528;2023-11-22T08:21:19;11.90;46.60
3868;DHT22;1949;48.152;11.528;2023-11-22T08:23:48;11.90;46.50
3868;DHT22;1949;48.152;11.528;2023-11-22T08:26:14;11.90;46.50
3868;DHT22;1949;48.152;11.528;2023-11-22T08:28:40;11.90;46.50
3868;DHT22;1949;48.152;11.528;2023-11-22T08:31:05;11.90;46.50
3868;DHT22;1949;48.152;11.528;2023-11-22T08:33:38;11.80;46.40
3868;DHT22;1949;48.152;11.528;2023-11-22T08:36:07;11.90;46.50
3868;DHT22;1949;48.152;11.528;2023-11-22T08:38:33;11.90;46.40
3868;DHT22;1949;48.152;11.528;2023-11-22T08:41:03;11.80;46.30
3868;DHT22;1949;48.152;11.528;2023-11-22T08:43:29;11.80;46.60
3868;DHT22;1949;48.152;11.528;2023-11-22T08:45:58;11.80;46.40
3868;DHT22;1949;48.152;11.528;2023-11-22T08:48:25;11.80;46.50
3868;DHT22;1949;48.152;11.528;2023-11-22T08:50:52;11.80;46.60
3868;DHT22;1949;48.152;11.528;2023-11-22T08:53:19;11.80;46.50
3868;DHT22;1949;48.152;11.528;2023-11-22T08:55:46;11.90;46.50
3868;DHT22;1949;48.152;11.528;2023-11-22T08:58:12;11.90;46.40
3868;DHT22;1949;48.152;11.528;2023-11-22T09:00:39;11.90;46.30
3868;DHT22;1949;48.152;11.528;2023-11-22T09:03:07;11.90;46.30
3868;DHT22;1949;48.152;11.528;2023-11-22T09:05:34;11.80;46.20
3868;DHT22;1949;48.152;11.528;2023-11-22T09:07:59;11.80;46.20
3868;DHT22;1949;48.152;11.528;2023-11-22T09:10:25;11.80;46.30
3868;DHT22;1949;48.152;11.528;2023-11-22T09:12:52;11.80;46.30
3868;DHT22;1949;48.152;11.528;2023-11-22T09:15:18;11.80;46.30
3868;DHT22;1949;48.152;11.528;2023-11-22T09:17:49;11.80;46.20
3868;DHT22;1949;48.152;11.528;2023-11-22T09:20:16;11.80;46.30
3868;DHT22;1949;48.152;11.528;2023-11-22T09:22:46;11.80;46.30
3868;DHT22;1949;48.152;11.528;2023-11-22T09:25:33;11.80;46.30
3868;DHT22;1949;48.152;11.528;2023-11-22T09:28:00;11.80;46.30
3868;DHT22;1949;48.152;11.528;2023-11-22T09:30:28;11.80;46.20
3868;DHT22;1949;48.152;11.528;2023-11-22T09:35:27;11.80;46.30
3868;DHT22;1949;48.152;11.528;2023-11-22T09:37:55;11.80;46.20
3868;DHT22;1949;48.152;11.528;2023-11-22T09:40:22;11.80;46.20
3868;DHT22;1949;48.152;11.528;2023-11-22T09:42:48;11.80;46.20
3868;DHT22;1949;48.152;11.528;2023-11-22T09:45:20;11.80;46.10
3868;DHT22;1949;48.152;11.528;2023-11-22T09:47:47;11.80;46.10
3868;DHT22;1949;48.152;11.528;2023-11-22T09:50:35;11.80;46.10
3868;DHT22;1949;48.152;11.528;2023-11-22T09:53:19;11.80;46.70
3868;DHT22;1949;48.152;11.528;2023-11-22T09:55:45;11.70;46.20
3868;DHT22;1949;48.152;11.528;2023-11-22T09:58:12;11.80;46.30
3868;DHT22;1949;48.152;11.528;2023-11-22T10:00:40;11.80;46.20
3868;DHT22;1949;48.152;11.528;2023-11-22T10:03:06;11.80;46.10
3868;DHT22;1949;48.152;11.528;2023-11-22T10:05:33;11.80;46.00
3868;DHT22;1949;48.152;11.528;2023-11-22T10:08:00;11.80;46.00
3868;DHT22;1949;48.152;11.528;2023-11-22T10:10:26;11.80;46.00
3868;DHT22;1949;48.152;11.528;2023-11-22T10:12:57;11.80;46.00
3868;DHT22;1949;48.152;11.528;2023-11-22T10:15:23;11.80;45.90
3868;DHT22;1949;48.152;11.528;2023-11-22T10:17:57;11.80;45.90
3868;DHT22;1949;48.152;11.528;2023-11-22T10:20:37;11.80;45.80
3868;DHT22;1949;48.152;11.528;2023-11-22T10:23:03;11.80;45.90
3868;DHT22;1949;48.152;11.528;2023-11-22T10:25:34;11.80;45.90
3868;DHT22;1949;48.152;11.528;2023-11-22T10:28:00;11.80;46.00
3868;DHT22;1949;48.152;11.528;2023-11-22T10:30:27;11.80;46.00
3868;DHT22;1949;48.152;11.528;2023-11-22T10:32:54;11.80;45.80
3868;DHT22;1949;48.152;11.528;2023-11-22T10:35:21;11.80;45.80
3868;DHT22;1949;48.152;11.528;2023-11-22T10:37:47;11.80;45.80
3868;DHT22;1949;48.152;11.528;2023-11-22T10:40:14;11.80;45.70
3868;DHT22;1949;48.152;11.528;2023-11-22T10:42:42;11.80;45.70
3868;DHT22;1949;48.152;11.528;2023-11-22T10:45:09;11.80;45.80
3868;DHT22;1949;48.152;11.528;2023-11-22T10:47:38;11.80;45.80
3868;DHT22;1949;48.152;11.528;2023-11-22T10:50:06;11.90;45.80
3868;DHT22;1949;48.152;11.528;2023-11-22T10:52:35;11.90;45.70
3868;DHT22;1949;48.152;11.528;2023-11-22T10:55:05;11.90;45.60
3868;DHT22;1949;48.152;11.528;2023-11-22T10:57:45;11.90;45.50
3868;DHT22;1949;48.152;11.528;2023-11-22T11:00:15;11.90;45.40
3868;DHT22;1949;48.152;11.528;2023-11-22T11:02:44;11.90;45.50
3868;DHT22;1949;48.152;11.528;2023-11-22T11:05:21;11.80;45.40
3868;DHT22;1949;48.152;11.528;2023-11-22T11:10:41;11.90;45.60
3868;DHT22;1949;48.152;11.528;2023-11-22T11:13:08;11.90;45.60
3868;DHT22;1949;48.152;11.528;2023-11-22T11:15:35;11.90;45.50
3868;DHT22;1949;48.152;11.528;2023-11-22T11:18:02;11.90;45.50
3868;DHT22;1949;48.152;11.528;2023-11-22T11:20:48;11.90;45.50
3868;DHT22;1949;48.152;11.528;2023-11-22T11:23:36;11.90;45.50
3868;DHT22;1949;48.152;11.528;2023-11-22T11:26:31;12.00;45.50
3868;DHT22;1949;48.152;11.528;2023-11-22T11:28:57;11.90;45.20
3868;DHT22;1949;48.152;11.528;2023-11-22T11:31:24;11.90;45.40
3868;DHT22;1949;48.152;11.528;2023-11-22T11:33:56;11.90;45.40
3868;DHT22;1949;48.152;11.528;2023-11-22T11:36:31;11.90;45.40
3868;DHT22;1949;48.152;11.528;2023-11-22T11:39:00;11.90;45.30
3868;DHT22;1949;48.152;11.528;2023-11-22T11:41:32;11.90;45.30
3868;DHT22;1949;48.152;11.528;2023-11-22T11:43:59;11.90;45.30
3868;DHT22;1949;48.152;11.528;2023-11-22T11:46:26;11.90;45.30
3868;DHT22;1949;48.152;11.528;2023-11-22T11:48:53;12.00;45.30
3868;DHT22;1949;48.152;11.528;2023-11-22T11:51:24;12.00;45.40
3868;DHT22;1949;48.152;11.528;2023-11-22T11:53:50;12.00;45.30
3868;DHT22;1949;48.152;11.528;2023-11-22T11:56:16;12.00;45.20
3868;DHT22;1949;48.152;11.528;2023-11-22T11:58:44;12.00;45.30
3868;DHT22;1949;48.152;11.528;2023-11-22T12:01:15;12.10;45.20
3868;DHT22;1949;48.152;11.528;2023-11-22T12:03:48;12.00;45.00
3868;DHT22;1949;48.152;11.528;2023-11-22T12:06:17;12.00;45.10
3868;DHT22;1949;48.152;11.528;2023-11-22T12:08:45;12.00;45.10
3868;DHT22;1949;48.152;11.528;2023-11-22T12:11:12;12.00;45.10
3868;DHT22;1949;48.152;11.528;2023-11-22T12:13:38;12.00;45.00
3868;DHT22;1949;48.152;11.528;2023-11-22T12:16:07;12.00;45.00
3868;DHT22;1949;48.152;11.528;2023-11-22T12:18:41;12.10;45.00
3868;DHT22;1949;48.152;11.528;2023-11-22T12:21:09;12.10;45.00
3868;DHT22;1949;48.152;11.528;2023-11-22T12:23:38;12.10;45.00
3868;DHT22;1949;48.152;11.528;2023-11-22T12:26:09;12.10;45.00
3868;DHT22;1949;48.152;11.528;2023-11-22T12:28:35;12.10;44.90
3868;DHT22;1949;48.152;11.528;2023-11-22T12:31:11;12.10;44.80
3868;DHT22;1949;48.152;11.528;2023-11-22T12:33:38;12.10;44.90
3868;DHT22;1949;48.152;11.528;2023-11-22T12:36:06;12.10;45.00
3868;DHT22;1949;48.152;11.528;2023-11-22T12:38:34;12.10;44.80
3868;DHT22;1949;48.152;11.528;2023-11-22T12:40:59;12.10;44.90
3868;DHT22;1949;48.152;11.528;2023-11-22T12:43:32;12.10;44.80
3868;DHT22;1949;48.152;11.528;2023-11-22T12:46:03;12.10;44.70
3868;DHT22;1949;48.152;11.528;2023-11-22T12:48:29;12.00;44.40
3868;DHT22;1949;48.152;11.528;2023-11-22T12:50:58;12.00;44.50
3868;DHT22;1949;48.152;11.528;2023-11-22T12:53:25;11.90;44.50
3868;DHT22;1949;48.152;11.528;2023-11-22T12:55:54;11.90;44.70
3868;DHT22;1949;48.152;11.528;2023-11-22T12:58:22;11.80;44.80
3868;DHT22;1949;48.152;11.528;2023-11-22T13:00:53;11.90;45.50
3868;DHT22;1949;48.152;11.528;2023-11-22T13:03:26;11.90;45.10
3868;DHT22;1949;48.152;11.528;2023-11-22T13:05:53;12.00;45.00
3868;DHT22;1949;48.152;11.528;2023-11-22T13:08:19;12.00;44.70
3868;DHT22;1949;48.152;11.528;2023-11-22T13:10:46;11.90;44.50
3868;DHT22;1949;48.152;11.528;2023-11-22T13:13:14;11.90;44.70
3868;DHT22;1949;48.152;11.528;2023-11-22T13:15:40;11.90;44.70
3868;DHT22;1949;48.152;11.528;2023-11-22T13:18:06;11.90;44.70
3868;DHT22;1949;48.152;11.528;2023-11-22T13:20:34;11.90;44.70
3868;DHT22;1949;48.152;11.528;2023-11-22T13:23:01;12.00;44.70
3868;DHT22;1949;48.152;11.528;2023-11-22T13:25:28;12.00;44.70
3868;DHT22;1949;48.152;11.528;2023-11-22T13:27:54;12.00;44.60
3868;DHT22;1949;48.152;11.528;2023-11-22T13:30:22;12.00;44.60
3868;DHT22;1949;48.152;11.528;2023-11-22T13:32:55;12.00;44.60
3868;DHT22;1949;48.152;11.528;2023-11-22T13:35:27;12.00;44.50
3868;DHT22;1949;48.152;11.528;2023-11-22T13:37:58;12.00;44.50
3868;DHT22;1949;48.152;11.528;2023-11-22T13:40:25;12.00;44.50
3868;DHT22;1949;48.152;11.528;2023-11-22T13:42:53;12.00;44.50
3868;DHT22;1949;48.152;11.528;2023-11-22T13:45:19;12.00;44.50
3868;DHT22;1949;48.152;11.528;2023-11-22T13:47:50;12.10;44.50
3868;DHT22;1949;48.152;11.528;2023-11-22T13:50:18;12.10;44.50
3868;DHT22;1949;48.152;11.528;2023-11-22T13:52:47;12.10;44.40
3868;DHT22;1949;48.152;11.528;2023-11-22T13:55:14;12.10;44.30
3868;DHT22;1949;48.152;11.528;2023-11-22T13:57:42;12.00;44.30
3868;DHT22;1949;48.152;11.528;2023-11-22T14:00:08;12.00;44.30
3868;DHT22;1949;48.152;11.528;2023-11-22T14:02:36;12.10;44.30
3868;DHT22;1949;48.152;11.528;2023-11-22T14:05:03;12.10;44.30
3868;DHT22;1949;48.152;11.528;2023-11-22T14:07:34;12.00;44.00
3868;DHT22;1949;48.152;11.528;2023-11-22T14:10:00;11.90;44.00
3868;DHT22;1949;48.152;11.528;2023-11-22T14:12:26;11.90;44.00
3868;DHT22;1949;48.152;11.528;2023-11-22T14:14:51;11.90;44.00
3868;DHT22;1949;48.152;11.528;2023-11-22T14:17:17;11.80;44.00
3868;DHT22;1949;48.152;11.528;2023-11-22T14:19:46;11.80;44.10
3868;DHT22;1949;48.152;11.528;2023-11-22T14:22:12;11.70;43.90
3868;DHT22;1949;48.152;11.528;2023-11-22T14:24:40;11.70;44.10
3868;DHT22;1949;48.152;11.528;2023-11-22T14:27:06;11.70;44.10
3868;DHT22;1949;48.152;11.528;2023-11-22T14:29:32;11.60;44.20
3868;DHT22;1949;48.152;11.528;2023-11-22T14:31:58;11.60;44.30
3868;DHT22;1949;48.152;11.528;2023-11-22T14:34:24;11.70;44.30
3868;DHT22;1949;48.152;11.528;2023-11-22T14:36:50;11.70;44.20
3868;DHT22;1949;48.152;11.528;2023-11-22T14:39:16;11.70;44.20
3868;DHT22;1949;48.152;11.528;2023-11-22T14:41:41;11.80;44.20
3868;DHT22;1949;48.152;11.528;2023-11-22T14:44:07;11.70;44.00
3868;DHT22;1949;48.152;11.528;2023-11-22T14:46:34;11.70;44.10
3868;DHT22;1949;48.152;11.528;2023-11-22T14:49:02;11.70;44.20
3868;DHT22;1949;48.152;11.528;2023-11-22T14:51:28;11.70;44.20
3868;DHT22;1949;48.152;11.528;2023-11-22T14:53:54;11.70;44.20
3868;DHT22;1949;48.152;11.528;2023-11-22T14:56:20;11.70;44.20
3868;DHT22;1949;48.152;11.528;2023-11-22T14:58:46;11.70;44.10
3868;DHT22;1949;48.152;11.528;2023-11-22T15:01:20;11.80;44.20
3868;DHT22;1949;48.152;11.528;2023-11-22T15:03:47;11.80;44.10
3868;DHT22;1949;48.152;11.528;2023-11-22T15:06:15;11.80;44.00
3868;DHT22;1949;48.152;11.528;2023-11-22T15:08:41;11.80;44.10
3868;DHT22;1949;48.152;11.528;2023-11-22T15:11:07;11.70;44.00
3868;DHT22;1949;48.152;11.528;2023-11-22T15:13:34;11.70;44.00
3868;DHT22;1949;48.152;11.528;2023-11-22T15:16:01;11.70;44.00
3868;DHT22;1949;48.152;11.528;2023-11-22T15:18:27;11.60;43.90
3868;DHT22;1949;48.152;11.528;2023-11-22T15:20:53;11.60;44.00
3868;DHT22;1949;48.152;11.528;2023-11-22T15:23:19;11.60;44.10
3868;DHT22;1949;48.152;11.528;2023-11-22T15:25:47;11.60;44.10
3868;DHT22;1949;48.152;11.528;2023-11-22T15:28:13;11.60;44.10
3868;DHT22;1949;48.152;11.528;2023-11-22T15:30:47;11.60;44.10
3868;DHT22;1949;48.152;11.528;2023-11-22T15:33:15;11.70;44.20
3868;DHT22;1949;48.152;11.528;2023-11-22T15:35:41;11.70;44.20
3868;DHT22;1949;48.152;11.528;2023-11-22T15:38:06;11.70;44.20
3868;DHT22;1949;48.152;11.528;2023-11-22T15:40:32;11.70;44.00
3868;DHT22;1949;48.152;11.528;2023-11-22T15:42:58;11.70;44.00
3868;DHT22;1949;48.152;11.528;2023-11-22T15:45:24;11.70;43.90
3868;DHT22;1949;48.152;11.528;2023-11-22T15:47:49;11.80;44.00
3868;DHT22;1949;48.152;11.528;2023-11-22T15:50:15;11.80;43.90